sensor_id;sensor_type;location;lat;lon;timestamp;temperature;humidity
3602;DHT22;1815;50.950;6.920;2023-03-11T00:00:40;4.70;99.90
3602;DHT22;1815;50.950;6.920;2023-03-11T00:03:07;4.70;99.90
3602;DHT22;1815;50.950;6.920;2023-03-11T00:05:36;4.80;99.90
3602;DHT22;1815;50.950;6.920;2023-03-11T00:08:03;4.70;99.90
3602;DHT22;1815;50.950;6.920;2023-03-11T00:10:33;4.70;99.90
3602;DHT22;1815;50.950;6.920;2023-03-11T00:12:59;4.70;99.90
3602;DHT22;1815;50.950;6.920;2023-03-11T00:15:27;4.80;99.90
3602;DHT22;1815;50.950;6.920;2023-03-11T00:17:53;4.80;99.90
3602;DHT22;1815;50.950;6.920;2023-03-11T00:20:27;4.80;99.90
3602;DHT22;1815;50.950;6.920;2023-03-11T00:22:53;4.80;99.90
3602;DHT22;1815;50.950;6.920;2023-03-11T00:25:21;4.80;99.90
3602;DHT22;1815;50.950;6.920;2023-03-11T00:27:48;4.80;99.90
3602;DHT22;1815;50.950;6.920;2023-03-11T00:30:16;4.80;99.90
3602;DHT22;1815;50.950;6.920;2023-03-11T00:32:42;4.80;99.90
3602;DHT22;1815;50.950;6.920;2023-03-11T00:35:12;4.80;99.90
3602;DHT22;1815;50.950;6.920;2023-03-11T00:37:38;4.80;99.90
3602;DHT22;1815;50.950;6.920;2023-03-11T00:40:04;4.70;99.90
3602;DHT22;1815;50.950;6.920;2023-03-11T00:42:34;4.70;99.90
3602;DHT22;1815;50.950;6.920;2023-03-11T00:45:00;4.70;99.90
3602;DHT22;1815;50.950;6.920;2023-03-11T00:47:26;4.60;99.90
3602;DHT22;1815;50.950;6.920;2023-03-11T00:49:52;4.60;99.90
3602;DHT22;1815;50.950;6.920;2023-03-11T00:52:18;4.60;99.90
3602;DHT22;1815;50.950;6.920;2023-03-11T00:54:44;4.50;99.90
3602;DHT22;1815;50.950;6.920;2023-03-11T00:57:11;4.50;99.90
3602;DHT22;1815;50.950;6.920;2023-03-11T00:59:37;4.50;99.90
3602;DHT22;1815;50.950;6.920;2023-03-11T01:02:02;4.50;99.90
3602;DHT22;1815;50.950;6.920;2023-03-11T01:04:28;4.50;99.90
3602;DHT22;1815;50.950;6.920;2023-03-11T01:06:54;4.50;99.90
3602;DHT22;1815;50.950;6.920;2023-03-11T01:09:20;4.50;99.90
3602;DHT22;1815;50.950;6.920;2023-03-11T01:11:45;4.50;99.90
3602;DHT22;1815;50.950;6.920;2023-03-11T01:14:11;4.50;99.90
3602;DHT22;1815;50.950;6.920;2023-03-11T01:16:37;4.50;99.90
3602;DHT22;1815;50.950;6.920;2023-03-11T01:19:02;4.50;99.90
3602;DHT22;1815;50.950;6.920;2023-03-11T01:21:28;4.50;99.90
3602;DHT22;1815;50.950;6.920;2023-03-11T01:23:54;4.60;99.90
3602;DHT22;1815;50.950;6.920;2023-03-11T01:26:20;4.60;99.90
3602;DHT22;1815;50.950;6.920;2023-03-11T01:28:45;4.60;99.90
3602;DHT22;1815;50.950;6.920;2023-03-11T01:31:11;4.60;99.90
3602;DHT22;1815;50.950;6.920;2023-03-11T01:33:37;4.60;99.90
3602;DHT22;1815;50.950;6.920;2023-03-11T01:36:04;4.60;99.90
3602;DHT22;1815;50.950;6.920;2023-03-11T01:38:30;4.60;99.90
3602;DHT22;1815;50.950;6.920;2023-03-11T01:40:56;4.70;99.90
3602;DHT22;1815;50.950;6.920;2023-03-11T01:48:46;4.70;99.90
3602;DHT22;1815;50.950;6.920;2023-03-11T01:51:13;4.70;99.90
3602;DHT22;1815;50.950;6.920;2023-03-11T01:53:39;4.70;99.90
3602;DHT22;1815;50.950;6.920;2023-03-11T01:56:05;4.70;99.90
3602;DHT22;1815;50.950;6.920;2023-03-11T01:58:35;4.70;99.90
3602;DHT22;1815;50.950;6.920;2023-03-11T02:01:03;4.70;99.90
3602;DHT22;1815;50.950;6.920;2023-03-11T02:03:33;4.70;99.90
3602;DHT22;1815;50.950;6.920;2023-03-11T02:06:05;4.60;99.90
3602;DHT22;1815;50.950;6.920;2023-03-11T02:08:31;4.60;99.90
3602;DHT22;1815;50.950;6.920;2023-03-11T02:11:04;4.60;99.90
3602;DHT22;1815;50.950;6.920;2023-03-11T02:13:32;4.50;99.90
3602;DHT22;1815;50.950;6.920;2023-03-11T02:16:00;4.50;99.90
3602;DHT22;1815;50.950;6.920;2023-03-11T02:18:26;4.50;99.90
3602;DHT22;1815;50.950;6.920;2023-03-11T02:26:57;4.50;99.90
3602;DHT22;1815;50.950;6.920;2023-03-11T02:29:25;4.50;99.90
3602;DHT22;1815;50.950;6.920;2023-03-11T02:31:52;4.50;99.90
3602;DHT22;1815;50.950;6.920;2023-03-11T02:34:28;4.50;99.90
3602;DHT22;1815;50.950;6.920;2023-03-11T02:36:55;4.50;99.90
3602;DHT22;1815;50.950;6.920;2023-03-11T02:39:29;4.40;99.90
3602;DHT22;1815;50.950;6.920;2023-03-11T02:41:57;4.40;99.90
3602;DHT22;1815;50.950;6.920;2023-03-11T02:44:23;4.30;99.90
3602;DHT22;1815;50.950;6.920;2023-03-11T02:46:49;4.30;99.90
3602;DHT22;1815;50.950;6.920;2023-03-11T02:49:16;4.20;99.90
3602;DHT22;1815;50.950;6.920;2023-03-11T02:51:42;4.20;99.90
3602;DHT22;1815;50.950;6.920;2023-03-11T02:54:08;4.20;99.90
3602;DHT22;1815;50.950;6.920;2023-03-11T02:56:35;4.10;99.90
3602;DHT22;1815;50.950;6.920;2023-03-11T02:59:00;4.10;99.90
3602;DHT22;1815;50.950;6.920;2023-03-11T03:01:28;4.10;99.90
3602;DHT22;1815;50.950;6.920;2023-03-11T03:03:54;4.10;99.90
3602;DHT22;1815;50.950;6.920;2023-03-11T03:06:20;4.10;99.90
3602;DHT22;1815;50.950;6.920;2023-03-11T03:08:48;4.10;99.90
3602;DHT22;1815;50.950;6.920;2023-03-11T03:11:14;4.00;99.90
3602;DHT22;1815;50.950;6.920;2023-03-11T03:13:40;4.00;99.90
3602;DHT22;1815;50.950;6.920;2023-03-11T03:16:06;4.00;99.90
3602;DHT22;1815;50.950;6.920;2023-03-11T03:18:32;4.00;99.90
3602;DHT22;1815;50.950;6.920;2023-03-11T03:20:58;3.90;99.90
3602;DHT22;1815;50.950;6.920;2023-03-11T03:23:24;3.90;99.90
3602;DHT22;1815;50.950;6.920;2023-03-11T03:25:50;3.80;99.90
3602;DHT22;1815;50.950;6.920;2023-03-11T03:28:16;3.80;99.90
3602;DHT22;1815;50.950;6.920;2023-03-11T03:30:44;3.70;99.90
3602;DHT22;1815;50.950;6.920;2023-03-11T03:33:11;3.70;99.90
3602;DHT22;1815;50.950;6.920;2023-03-11T03:35:41;3.70;99.90
3602;DHT22;1815;50.950;6.920;2023-03-11T03:38:12;3.60;99.90
3602;DHT22;1815;50.950;6.920;2023-03-11T03:40:44;3.50;99.90
3602;DHT22;1815;50.950;6.920;2023-03-11T03:43:10;3.50;99.90
3602;DHT22;1815;50.950;6.920;2023-03-11T03:45:37;3.50;99.90
3602;DHT22;1815;50.950;6.920;2023-03-11T03:48:04;3.40;99.90
3602;DHT22;1815;50.950;6.920;2023-03-11T03:50:33;3.40;99.90
3602;DHT22;1815;50.950;6.920;2023-03-11T03:52:59;3.40;99.90
3602;DHT22;1815;50.950;6.920;2023-03-11T03:55:25;3.30;99.90
3602;DHT22;1815;50.950;6.920;2023-03-11T03:57:52;3.30;99.90
3602;DHT22;1815;50.950;6.920;2023-03-11T04:00:20;3.30;99.90
3602;DHT22;1815;50.950;6.920;2023-03-11T04:02:52;3.20;99.90
3602;DHT22;1815;50.950;6.920;2023-03-11T04:05:26;3.10;99.90
3602;DHT22;1815;50.950;6.920;2023-03-11T04:07:53;3.10;99.90
3602;DHT22;1815;50.950;6.920;2023-03-11T04:10:20;3.10;99.90
3602;DHT22;1815;50.950;6.920;2023-03-11T04:12:46;3.00;99.90
3602;DHT22;1815;50.950;6.920;2023-03-11T04:15:12;2.90;99.90
3602;DHT22;1815;50.950;6.920;2023-03-11T04:17:40;2.90;99.90
3602;DHT22;1815;50.950;6.920;2023-03-11T04:20:06;2.90;99.90
3602;DHT22;1815;50.950;6.920;2023-03-11T04:22:34;2.90;99.90
3602;DHT22;1815;50.950;6.920;2023-03-11T04:25:00;2.90;99.90
3602;DHT22;1815;50.950;6.920;2023-03-11T04:27:27;2.90;99.90
3602;DHT22;1815;50.950;6.920;2023-03-11T04:29:53;2.80;99.90
3602;DHT22;1815;50.950;6.920;2023-03-11T04:32:19;2.90;99.90
3602;DHT22;1815;50.950;6.920;2023-03-11T04:34:47;2.90;99.90
3602;DHT22;1815;50.950;6.920;2023-03-11T04:37:13;2.80;99.90
3602;DHT22;1815;50.950;6.920;2023-03-11T04:39:40;2.80;99.90
3602;DHT22;1815;50.950;6.920;2023-03-11T04:42:06;2.80;99.90
3602;DHT22;1815;50.950;6.920;2023-03-11T04:44:34;2.80;99.90
3602;DHT22;1815;50.950;6.920;2023-03-11T04:47:00;2.80;99.90
3602;DHT22;1815;50.950;6.920;2023-03-11T04:49:26;2.80;99.90
3602;DHT22;1815;50.950;6.920;2023-03-11T04:51:52;2.80;99.90
3602;DHT22;1815;50.950;6.920;2023-03-11T04:54:21;2.80;99.90
3602;DHT22;1815;50.950;6.920;2023-03-11T04:56:47;2.70;99.90
3602;DHT22;1815;50.950;6.920;2023-03-11T04:59:12;2.70;99.90
3602;DHT22;1815;50.950;6.920;2023-03-11T05:01:40;2.70;99.90
3602;DHT22;1815;50.950;6.920;2023-03-11T05:04:07;2.70;99.90
3602;DHT22;1815;50.950;6.920;2023-03-11T05:06:33;2.70;99.90
3602;DHT22;1815;50.950;6.920;2023-03-11T05:09:01;2.70;99.90
3602;DHT22;1815;50.950;6.920;2023-03-11T05:11:32;2.70;99.90
3602;DHT22;1815;50.950;6.920;2023-03-11T05:13:57;2.70;99.90
3602;DHT22;1815;50.950;6.920;2023-03-11T05:16:23;2.70;99.90
3602;DHT22;1815;50.950;6.920;2023-03-11T05:18:49;2.70;99.90
3602;DHT22;1815;50.950;6.920;2023-03-11T05:21:15;2.70;99.90
3602;DHT22;1815;50.950;6.920;2023-03-11T05:23:40;2.70;99.90
3602;DHT22;1815;50.950;6.920;2023-03-11T05:26:07;2.80;99.90
3602;DHT22;1815;50.950;6.920;2023-03-11T05:28:33;2.80;99.90
3602;DHT22;1815;50.950;6.920;2023-03-11T05:31:00;2.80;99.90
3602;DHT22;1815;50.950;6.920;2023-03-11T05:33:29;2.90;99.90
3602;DHT22;1815;50.950;6.920;2023-03-11T05:36:08;2.90;99.90
3602;DHT22;1815;50.950;6.920;2023-03-11T05:38:36;3.00;99.90
3602;DHT22;1815;50.950;6.920;2023-03-11T05:41:02;3.00;99.90
3602;DHT22;1815;50.950;6.920;2023-03-11T05:43:28;3.00;99.90
3602;DHT22;1815;50.950;6.920;2023-03-11T05:45:54;3.00;99.90
3602;DHT22;1815;50.950;6.920;2023-03-11T05:48:19;3.10;99.90
3602;DHT22;1815;50.950;6.920;2023-03-11T05:50:45;3.10;99.90
3602;DHT22;1815;50.950;6.920;2023-03-11T05:53:11;3.10;99.90
3602;DHT22;1815;50.950;6.920;2023-03-11T05:55:37;3.10;99.90
3602;DHT22;1815;50.950;6.920;2023-03-11T05:58:03;3.20;99.90
3602;DHT22;1815;50.950;6.920;2023-03-11T06:00:30;3.20;99.90
3602;DHT22;1815;50.950;6.920;2023-03-11T06:02:58;3.20;99.90
3602;DHT22;1815;50.950;6.920;2023-03-11T06:05:24;3.20;99.90
3602;DHT22;1815;50.950;6.920;2023-03-11T06:07:51;3.30;99.90
3602;DHT22;1815;50.950;6.920;2023-03-11T06:10:18;3.30;99.90
3602;DHT22;1815;50.950;6.920;2023-03-11T06:12:45;3.30;99.90
3602;DHT22;1815;50.950;6.920;2023-03-11T06:15:16;3.30;99.90
3602;DHT22;1815;50.950;6.920;2023-03-11T06:17:42;3.40;99.90
3602;DHT22;1815;50.950;6.920;2023-03-11T06:20:08;3.40;99.90
3602;DHT22;1815;50.950;6.920;2023-03-11T06:22:34;3.40;99.90
3602;DHT22;1815;50.950;6.920;2023-03-11T06:25:00;3.40;99.90
3602;DHT22;1815;50.950;6.920;2023-03-11T06:27:29;3.50;99.90
3602;DHT22;1815;50.950;6.920;2023-03-11T06:29:55;3.50;99.90
3602;DHT22;1815;50.950;6.920;2023-03-11T06:32:23;3.60;99.90
3602;DHT22;1815;50.950;6.920;2023-03-11T06:34:50;3.70;99.90
3602;DHT22;1815;50.950;6.920;2023-03-11T06:37:16;3.70;99.90
3602;DHT22;1815;50.950;6.920;2023-03-11T06:39:42;3.80;99.90
3602;DHT22;1815;50.950;6.920;2023-03-11T06:42:12;3.90;99.90
3602;DHT22;1815;50.950;6.920;2023-03-11T06:44:39;3.90;99.90
3602;DHT22;1815;50.950;6.920;2023-03-11T06:47:05;4.00;99.90
3602;DHT22;1815;50.950;6.920;2023-03-11T06:49:32;4.10;99.90
3602;DHT22;1815;50.950;6.920;2023-03-11T06:51:57;4.20;99.90
3602;DHT22;1815;50.950;6.920;2023-03-11T06:54:23;4.20;99.90
3602;DHT22;1815;50.950;6.920;2023-03-11T06:56:49;4.30;99.90
3602;DHT22;1815;50.950;6.920;2023-03-11T06:59:15;4.30;99.90
3602;DHT22;1815;50.950;6.920;2023-03-11T07:01:41;4.40;99.90
3602;DHT22;1815;50.950;6.920;2023-03-11T07:04:09;4.40;99.90
3602;DHT22;1815;50.950;6.920;2023-03-11T07:06:37;4.50;99.90
3602;DHT22;1815;50.950;6.920;2023-03-11T07:09:12;4.50;99.90
3602;DHT22;1815;50.950;6.920;2023-03-11T07:11:41;4.60;99.90
3602;DHT22;1815;50.950;6.920;2023-03-11T07:14:11;4.60;99.90
3602;DHT22;1815;50.950;6.920;2023-03-11T07:16:41;4.70;99.90
3602;DHT22;1815;50.950;6.920;2023-03-11T07:19:14;4.80;99.90
3602;DHT22;1815;50.950;6.920;2023-03-11T07:21:40;4.90;99.90
3602;DHT22;1815;50.950;6.920;2023-03-11T07:24:06;5.00;99.90
3602;DHT22;1815;50.950;6.920;2023-03-11T07:26:33;5.10;99.90
3602;DHT22;1815;50.950;6.920;2023-03-11T07:29:00;5.30;99.90
3602;DHT22;1815;50.950;6.920;2023-03-11T07:31:29;5.40;99.90
3602;DHT22;1815;50.950;6.920;2023-03-11T07:34:01;5.50;99.90
3602;DHT22;1815;50.950;6.920;2023-03-11T07:36:28;5.60;99.90
3602;DHT22;1815;50.950;6.920;2023-03-11T07:38:59;5.60;99.90
3602;DHT22;1815;50.950;6.920;2023-03-11T07:41:28;5.60;99.90
3602;DHT22;1815;50.950;6.920;2023-03-11T07:43:56;5.70;99.90
3602;DHT22;1815;50.950;6.920;2023-03-11T07:46:23;5.70;99.90
3602;DHT22;1815;50.950;6.920;2023-03-11T07:48:50;5.80;99.90
3602;DHT22;1815;50.950;6.920;2023-03-11T07:51:24;5.80;99.90
3602;DHT22;1815;50.950;6.920;2023-03-11T07:53:52;5.90;99.90
3602;DHT22;1815;50.950;6.920;2023-03-11T07:56:21;6.00;99.90
3602;DHT22;1815;50.950;6.920;2023-03-11T07:58:48;6.20;99.90
3602;DHT22;1815;50.950;6.920;2023-03-11T08:01:17;6.50;99.90
3602;DHT22;1815;50.950;6.920;2023-03-11T08:03:45;7.00;99.90
3602;DHT22;1815;50.950;6.920;2023-03-11T08:06:20;7.70;99.90
3602;DHT22;1815;50.950;6.920;2023-03-11T08:08:47;8.60;99.90
3602;DHT22;1815;50.950;6.920;2023-03-11T08:11:14;9.70;99.90
3602;DHT22;1815;50.950;6.920;2023-03-11T08:13:41;10.60;99.90
3602;DHT22;1815;50.950;6.920;2023-03-11T08:16:08;11.50;99.90
3602;DHT22;1815;50.950;6.920;2023-03-11T08:18:34;12.40;99.90
3602;DHT22;1815;50.950;6.920;2023-03-11T08:21:08;13.40;99.90
3602;DHT22;1815;50.950;6.920;2023-03-11T08:23:34;14.30;99.90
3602;DHT22;1815;50.950;6.920;2023-03-11T08:26:11;15.30;99.90
3602;DHT22;1815;50.950;6.920;2023-03-11T08:28:37;16.30;99.90
3602;DHT22;1815;50.950;6.920;2023-03-11T08:31:14;17.10;99.90
3602;DHT22;1815;50.950;6.920;2023-03-11T08:33:41;17.90;99.90
3602;DHT22;1815;50.950;6.920;2023-03-11T08:36:07;18.60;99.90
3602;DHT22;1815;50.950;6.920;2023-03-11T08:38:33;19.20;99.90
3602;DHT22;1815;50.950;6.920;2023-03-11T08:40:59;19.60;99.90
3602;DHT22;1815;50.950;6.920;2023-03-11T08:43:25;20.00;99.90
3602;DHT22;1815;50.950;6.920;2023-03-11T08:45:51;20.40;99.90
3602;DHT22;1815;50.950;6.920;2023-03-11T08:48:16;20.70;99.90
3602;DHT22;1815;50.950;6.920;2023-03-11T08:50:42;21.00;99.90
3602;DHT22;1815;50.950;6.920;2023-03-11T08:53:08;21.30;99.90
3602;DHT22;1815;50.950;6.920;2023-03-11T08:55:34;21.50;99.90
3602;DHT22;1815;50.950;6.920;2023-03-11T08:58:00;21.90;99.90
3602;DHT22;1815;50.950;6.920;2023-03-11T09:00:26;22.30;99.90
3602;DHT22;1815;50.950;6.920;2023-03-11T09:02:52;22.70;99.90
3602;DHT22;1815;50.950;6.920;2023-03-11T09:05:18;23.00;99.90
3602;DHT22;1815;50.950;6.920;2023-03-11T09:07:44;23.40;99.90
3602;DHT22;1815;50.950;6.920;2023-03-11T09:10:13;23.70;99.90
3602;DHT22;1815;50.950;6.920;2023-03-11T09:12:39;24.00;99.90
3602;DHT22;1815;50.950;6.920;2023-03-11T09:15:05;24.10;98.50
3602;DHT22;1815;50.950;6.920;2023-03-11T09:17:31;23.90;96.80
3602;DHT22;1815;50.950;6.920;2023-03-11T09:19:57;23.30;94.30
3602;DHT22;1815;50.950;6.920;2023-03-11T09:22:23;22.70;92.90
3602;DHT22;1815;50.950;6.920;2023-03-11T09:24:48;22.20;92.30
3602;DHT22;1815;50.950;6.920;2023-03-11T09:27:14;22.00;94.10
3602;DHT22;1815;50.950;6.920;2023-03-11T09:29:41;21.90;94.20
3602;DHT22;1815;50.950;6.920;2023-03-11T09:32:07;22.10;94.90
3602;DHT22;1815;50.950;6.920;2023-03-11T09:34:34;22.40;95.00
3602;DHT22;1815;50.950;6.920;2023-03-11T09:37:00;22.70;93.70
3602;DHT22;1815;50.950;6.920;2023-03-11T09:39:26;22.40;90.00
3602;DHT22;1815;50.950;6.920;2023-03-11T09:41:57;21.90;87.70
3602;DHT22;1815;50.950;6.920;2023-03-11T09:47:31;21.30;85.70
3602;DHT22;1815;50.950;6.920;2023-03-11T09:50:05;20.70;84.20
3602;DHT22;1815;50.950;6.920;2023-03-11T09:52:41;20.30;85.60
3602;DHT22;1815;50.950;6.920;2023-03-11T09:57:46;19.50;79.40
3602;DHT22;1815;50.950;6.920;2023-03-11T10:00:14;18.80;76.20
3602;DHT22;1815;50.950;6.920;2023-03-11T10:02:44;18.20;76.10
3602;DHT22;1815;50.950;6.920;2023-03-11T10:05:22;18.10;81.40
3602;DHT22;1815;50.950;6.920;2023-03-11T10:08:04;18.20;83.10
3602;DHT22;1815;50.950;6.920;2023-03-11T10:10:40;17.90;76.60
3602;DHT22;1815;50.950;6.920;2023-03-11T10:13:24;17.40;76.00
3602;DHT22;1815;50.950;6.920;2023-03-11T10:16:18;16.80;73.10
3602;DHT22;1815;50.950;6.920;2023-03-11T10:18:54;16.20;73.30
3602;DHT22;1815;50.950;6.920;2023-03-11T10:21:40;15.50;72.10
3602;DHT22;1815;50.950;6.920;2023-03-11T10:27:29;14.70;76.20
3602;DHT22;1815;50.950;6.920;2023-03-11T10:32:46;15.40;84.10
3602;DHT22;1815;50.950;6.920;2023-03-11T10:35:23;15.90;83.30
3602;DHT22;1815;50.950;6.920;2023-03-11T10:38:01;16.40;86.50
3602;DHT22;1815;50.950;6.920;2023-03-11T10:40:34;16.70;83.80
3602;DHT22;1815;50.950;6.920;2023-03-11T10:43:10;16.80;81.60
3602;DHT22;1815;50.950;6.920;2023-03-11T10:45:40;17.00;83.00
3602;DHT22;1815;50.950;6.920;2023-03-11T10:48:10;17.30;87.00
3602;DHT22;1815;50.950;6.920;2023-03-11T10:50:46;17.40;84.70
3602;DHT22;1815;50.950;6.920;2023-03-11T10:53:16;17.60;80.20
3602;DHT22;1815;50.950;6.920;2023-03-11T10:55:52;17.70;83.60
3602;DHT22;1815;50.950;6.920;2023-03-11T10:58:25;17.80;82.30
3602;DHT22;1815;50.950;6.920;2023-03-11T11:01:14;17.90;81.20
3602;DHT22;1815;50.950;6.920;2023-03-11T11:03:41;17.80;76.60
3602;DHT22;1815;50.950;6.920;2023-03-11T11:09:13;17.40;74.00
3602;DHT22;1815;50.950;6.920;2023-03-11T11:12:11;17.10;74.10
3602;DHT22;1815;50.950;6.920;2023-03-11T11:14:46;16.60;70.80
3602;DHT22;1815;50.950;6.920;2023-03-11T11:17:32;16.10;69.90
3602;DHT22;1815;50.950;6.920;2023-03-11T11:20:02;15.60;70.30
3602;DHT22;1815;50.950;6.920;2023-03-11T11:22:38;15.20;70.20
3602;DHT22;1815;50.950;6.920;2023-03-11T11:25:36;14.80;71.30
3602;DHT22;1815;50.950;6.920;2023-03-11T11:28:16;14.30;69.80
3602;DHT22;1815;50.950;6.920;2023-03-11T11:31:04;14.00;71.00
3602;DHT22;1815;50.950;6.920;2023-03-11T11:33:41;13.60;69.90
3602;DHT22;1815;50.950;6.920;2023-03-11T11:36:14;13.40;71.80
3602;DHT22;1815;50.950;6.920;2023-03-11T11:38:41;13.00;69.80
3602;DHT22;1815;50.950;6.920;2023-03-11T11:41:19;12.80;70.20
3602;DHT22;1815;50.950;6.920;2023-03-11T11:43:55;12.60;70.90
3602;DHT22;1815;50.950;6.920;2023-03-11T11:46:41;12.50;72.40
3602;DHT22;1815;50.950;6.920;2023-03-11T11:49:23;12.30;71.20
3602;DHT22;1815;50.950;6.920;2023-03-11T11:57:27;11.90;73.50
3602;DHT22;1815;50.950;6.920;2023-03-11T11:59:53;11.80;75.60
3602;DHT22;1815;50.950;6.920;2023-03-11T12:05:30;11.90;76.00
3602;DHT22;1815;50.950;6.920;2023-03-11T12:18:42;12.70;82.80
3602;DHT22;1815;50.950;6.920;2023-03-11T12:26:36;13.20;80.10
3602;DHT22;1815;50.950;6.920;2023-03-11T12:29:23;13.30;81.10
3602;DHT22;1815;50.950;6.920;2023-03-11T12:31:49;13.20;80.00
3602;DHT22;1815;50.950;6.920;2023-03-11T12:34:19;13.30;82.00
3602;DHT22;1815;50.950;6.920;2023-03-11T12:36:47;13.20;79.60
3602;DHT22;1815;50.950;6.920;2023-03-11T12:44:38;12.60;73.90
3602;DHT22;1815;50.950;6.920;2023-03-11T12:52:27;12.20;77.80
3602;DHT22;1815;50.950;6.920;2023-03-11T13:00:10;12.10;78.90
3602;DHT22;1815;50.950;6.920;2023-03-11T13:03:50;12.10;76.70
3602;DHT22;1815;50.950;6.920;2023-03-11T13:10:54;11.90;77.90
3602;DHT22;1815;50.950;6.920;2023-03-11T13:18:37;11.80;76.70
3602;DHT22;1815;50.950;6.920;2023-03-11T13:21:04;11.80;79.00
3602;DHT22;1815;50.950;6.920;2023-03-11T13:23:33;11.80;79.10
3602;DHT22;1815;50.950;6.920;2023-03-11T13:34:42;11.70;77.90
3602;DHT22;1815;50.950;6.920;2023-03-11T13:37:23;11.60;77.80
3602;DHT22;1815;50.950;6.920;2023-03-11T13:42:36;11.60;79.20
3602;DHT22;1815;50.950;6.920;2023-03-11T13:45:07;11.60;79.90
3602;DHT22;1815;50.950;6.920;2023-03-11T13:47:38;11.50;78.40
3602;DHT22;1815;50.950;6.920;2023-03-11T13:50:23;11.40;77.60
3602;DHT22;1815;50.950;6.920;2023-03-11T13:52:51;11.30;77.50
3602;DHT22;1815;50.950;6.920;2023-03-11T13:55:19;11.20;76.70
3602;DHT22;1815;50.950;6.920;2023-03-11T13:57:51;11.00;75.30
3602;DHT22;1815;50.950;6.920;2023-03-11T14:00:20;10.80;75.20
3602;DHT22;1815;50.950;6.920;2023-03-11T14:02:51;10.60;75.00
3602;DHT22;1815;50.950;6.920;2023-03-11T14:05:31;10.40;74.70
3602;DHT22;1815;50.950;6.920;2023-03-11T14:08:18;10.30;74.40
3602;DHT22;1815;50.950;6.920;2023-03-11T14:13:21;9.80;75.00
3602;DHT22;1815;50.950;6.920;2023-03-11T14:15:56;9.70;74.80
3602;DHT22;1815;50.950;6.920;2023-03-11T14:18:37;9.60;75.90
3602;DHT22;1815;50.950;6.920;2023-03-11T14:21:13;9.50;75.00
3602;DHT22;1815;50.950;6.920;2023-03-11T14:23:47;9.30;76.00
3602;DHT22;1815;50.950;6.920;2023-03-11T14:26:19;9.20;75.90
3602;DHT22;1815;50.950;6.920;2023-03-11T14:28:51;9.10;75.60
3602;DHT22;1815;50.950;6.920;2023-03-11T14:31:37;8.90;75.70
3602;DHT22;1815;50.950;6.920;2023-03-11T14:41:48;8.60;76.30
3602;DHT22;1815;50.950;6.920;2023-03-11T14:44:14;8.60;78.20
3602;DHT22;1815;50.950;6.920;2023-03-11T14:46:41;8.60;78.20
3602;DHT22;1815;50.950;6.920;2023-03-11T14:49:13;8.50;78.20
3602;DHT22;1815;50.950;6.920;2023-03-11T14:51:42;8.40;78.30
3602;DHT22;1815;50.950;6.920;2023-03-11T14:54:23;8.50;79.10
3602;DHT22;1815;50.950;6.920;2023-03-11T14:57:01;8.40;76.10
3602;DHT22;1815;50.950;6.920;2023-03-11T14:59:30;8.50;79.30
3602;DHT22;1815;50.950;6.920;2023-03-11T15:02:26;8.50;79.80
3602;DHT22;1815;50.950;6.920;2023-03-11T15:04:55;8.50;79.50
3602;DHT22;1815;50.950;6.920;2023-03-11T15:07:22;8.60;80.90
3602;DHT22;1815;50.950;6.920;2023-03-11T15:09:48;8.50;80.70
3602;DHT22;1815;50.950;6.920;2023-03-11T15:12:40;8.50;80.40
3602;DHT22;1815;50.950;6.920;2023-03-11T15:15:21;8.50;80.20
3602;DHT22;1815;50.950;6.920;2023-03-11T15:17:54;8.50;81.20
3602;DHT22;1815;50.950;6.920;2023-03-11T15:20:25;8.60;81.00
3602;DHT22;1815;50.950;6.920;2023-03-11T15:22:56;8.60;82.20
3602;DHT22;1815;50.950;6.920;2023-03-11T15:25:26;8.60;82.30
3602;DHT22;1815;50.950;6.920;2023-03-11T15:27:52;8.60;82.00
3602;DHT22;1815;50.950;6.920;2023-03-11T15:32:46;8.60;82.30
3602;DHT22;1815;50.950;6.920;2023-03-11T15:35:21;8.70;82.50
3602;DHT22;1815;50.950;6.920;2023-03-11T15:37:48;8.70;82.20
3602;DHT22;1815;50.950;6.920;2023-03-11T15:42:43;8.70;82.10
3602;DHT22;1815;50.950;6.920;2023-03-11T15:45:19;8.70;82.20
3602;DHT22;1815;50.950;6.920;2023-03-11T15:47:47;8.70;82.10
3602;DHT22;1815;50.950;6.920;2023-03-11T15:50:25;8.70;82.10
3602;DHT22;1815;50.950;6.920;2023-03-11T15:52:55;8.70;82.40
3602;DHT22;1815;50.950;6.920;2023-03-11T15:55:23;8.70;82.70
3602;DHT22;1815;50.950;6.920;2023-03-11T15:57:51;8.80;82.40
3602;DHT22;1815;50.950;6.920;2023-03-11T16:00:21;8.70;82.40
3602;DHT22;1815;50.950;6.920;2023-03-11T16:02:48;8.80;83.00
3602;DHT22;1815;50.950;6.920;2023-03-11T16:05:20;8.70;82.20
3602;DHT22;1815;50.950;6.920;2023-03-11T16:07:47;8.70;82.10
3602;DHT22;1815;50.950;6.920;2023-03-11T16:10:15;8.70;82.70
3602;DHT22;1815;50.950;6.920;2023-03-11T16:12:41;8.60;82.50
3602;DHT22;1815;50.950;6.920;2023-03-11T16:15:31;8.60;82.60
3602;DHT22;1815;50.950;6.920;2023-03-11T16:17:59;8.60;81.70
3602;DHT22;1815;50.950;6.920;2023-03-11T16:20:27;8.60;82.90
3602;DHT22;1815;50.950;6.920;2023-03-11T16:22:56;8.50;82.60
3602;DHT22;1815;50.950;6.920;2023-03-11T16:25:37;8.50;82.40
3602;DHT22;1815;50.950;6.920;2023-03-11T16:28:12;8.40;82.30
3602;DHT22;1815;50.950;6.920;2023-03-11T16:30:38;8.40;82.50
3602;DHT22;1815;50.950;6.920;2023-03-11T16:33:04;8.40;82.80
3602;DHT22;1815;50.950;6.920;2023-03-11T16:35:30;8.30;82.90
3602;DHT22;1815;50.950;6.920;2023-03-11T16:37:56;8.30;83.10
3602;DHT22;1815;50.950;6.920;2023-03-11T16:40:23;8.30;83.30
3602;DHT22;1815;50.950;6.920;2023-03-11T16:42:56;8.20;82.90
3602;DHT22;1815;50.950;6.920;2023-03-11T16:45:22;8.20;83.20
3602;DHT22;1815;50.950;6.920;2023-03-11T16:47:48;8.20;83.20
3602;DHT22;1815;50.950;6.920;2023-03-11T16:50:13;8.10;83.50
3602;DHT22;1815;50.950;6.920;2023-03-11T16:52:39;8.10;83.80
3602;DHT22;1815;50.950;6.920;2023-03-11T16:55:05;8.00;83.50
3602;DHT22;1815;50.950;6.920;2023-03-11T16:57:31;8.00;83.70
3602;DHT22;1815;50.950;6.920;2023-03-11T16:59:57;7.90;83.50
3602;DHT22;1815;50.950;6.920;2023-03-11T17:02:22;7.90;84.10
3602;DHT22;1815;50.950;6.920;2023-03-11T17:04:48;7.90;84.20
3602;DHT22;1815;50.950;6.920;2023-03-11T17:07:14;7.80;84.40
3602;DHT22;1815;50.950;6.920;2023-03-11T17:09:40;7.80;85.10
3602;DHT22;1815;50.950;6.920;2023-03-11T17:12:06;7.70;84.20
3602;DHT22;1815;50.950;6.920;2023-03-11T17:14:32;7.70;84.40
3602;DHT22;1815;50.950;6.920;2023-03-11T17:16:58;7.60;84.60
3602;DHT22;1815;50.950;6.920;2023-03-11T17:19:24;7.60;84.20
3602;DHT22;1815;50.950;6.920;2023-03-11T17:21:50;7.50;84.40
3602;DHT22;1815;50.950;6.920;2023-03-11T17:24:16;7.50;84.30
3602;DHT22;1815;50.950;6.920;2023-03-11T17:26:41;7.40;84.60
3602;DHT22;1815;50.950;6.920;2023-03-11T17:29:07;7.30;84.60
3602;DHT22;1815;50.950;6.920;2023-03-11T17:31:33;7.20;84.60
3602;DHT22;1815;50.950;6.920;2023-03-11T17:33:59;7.20;84.80
3602;DHT22;1815;50.950;6.920;2023-03-11T17:36:25;7.10;85.00
3602;DHT22;1815;50.950;6.920;2023-03-11T17:38:53;7.00;84.80
3602;DHT22;1815;50.950;6.920;2023-03-11T17:41:20;6.90;84.80
3602;DHT22;1815;50.950;6.920;2023-03-11T17:43:46;6.90;85.10
3602;DHT22;1815;50.950;6.920;2023-03-11T17:46:14;6.80;85.30
3602;DHT22;1815;50.950;6.920;2023-03-11T17:48:41;6.80;85.50
3602;DHT22;1815;50.950;6.920;2023-03-11T17:51:09;6.70;85.70
3602;DHT22;1815;50.950;6.920;2023-03-11T17:53:36;6.60;85.90
3602;DHT22;1815;50.950;6.920;2023-03-11T17:56:03;6.50;86.00
3602;DHT22;1815;50.950;6.920;2023-03-11T17:58:30;6.50;86.30
3602;DHT22;1815;50.950;6.920;2023-03-11T18:00:56;6.40;86.40
3602;DHT22;1815;50.950;6.920;2023-03-11T18:03:21;6.30;86.60
3602;DHT22;1815;50.950;6.920;2023-03-11T18:05:59;6.30;86.80
3602;DHT22;1815;50.950;6.920;2023-03-11T18:08:25;6.20;86.30
3602;DHT22;1815;50.950;6.920;2023-03-11T18:10:52;6.20;87.10